Time;durP1;ratioP1;P1;durP2;ratioP2;P2;SDS_P1;SDS_P2;PMS_P1;PMS_P2;Temp;Humidity;BMP_temperature;BMP_pressure;BME280_temperature;BME280_humidity;BME280_pressure;Samples;Min_cycle;Max_cycle;Signal;HPM_P1;HPM_P2
2022/06/17 00:01:48;;;;;;;5.63;4.70;;;;;;;;;;5113816;27;20327;-74
2022/06/17 00:04:15;;;;;;;8.13;5.00;;;;;;;;;;5109410;27;20591;-74
2022/06/17 00:06:44;;;;;;;6.07;4.80;;;;;;;;;;5103212;28;20241;-74
2022/06/17 00:09:13;;;;;;;6.80;5.13;;;;;;;;;;5096154;27;20206;-74
2022/06/17 00:11:40;;;;;;;8.83;5.20;;;;;;;;;;5107951;28;20197;-75
2022/06/17 00:14:12;;;;;;;8.17;5.10;;;;;;;;;;5123410;27;20691;-74
2022/06/17 00:16:39;;;;;;;6.53;5.23;;;;;;;;;;5133856;27;20304;-74
2022/06/17 00:19:06;;;;;;;7.00;5.23;;;;;;;;;;5133359;27;20288;-74
2022/06/17 00:21:35;;;;;;;7.13;5.50;;;;;;;;;;5133727;27;20276;-74
2022/06/17 00:24:03;;;;;;;9.27;5.60;;;;;;;;;;5123365;27;20233;-74
2022/06/17 00:26:30;;;;;;;7.43;5.00;;;;;;;;;;5112277;28;20328;-74
2022/06/17 00:28:57;;;;;;;8.37;4.80;;;;;;;;;;5106404;28;20712;-74
2022/06/17 00:31:26;;;;;;;5.47;4.63;;;;;;;;;;5109367;28;20229;-74
2022/06/17 00:33:53;;;;;;;6.13;4.70;;;;;;;;;;5092549;28;20290;-74
2022/06/17 00:36:20;;;;;;;6.40;4.47;;;;;;;;;;5091945;28;20234;-74
2022/06/17 00:38:47;;;;;;;5.43;4.23;;;;;;;;;;5095904;27;20229;-74
2022/06/17 00:41:16;;;;;;;8.30;4.83;;;;;;;;;;5102536;28;20392;-75
2022/06/17 00:43:44;;;;;;;6.47;4.70;;;;;;;;;;5099669;28;20280;-74
2022/06/17 00:46:17;;;;;;;6.33;4.50;;;;;;;;;;5112846;28;20585;-74
2022/06/17 00:48:49;;;;;;;5.63;4.23;;;;;;;;;;5112583;28;20320;-74
2022/06/17 00:51:21;;;;;;;6.47;4.57;;;;;;;;;;5112955;28;20599;-74
2022/06/17 00:53:51;;;;;;;5.67;4.20;;;;;;;;;;5111952;28;20233;-74
2022/06/17 00:56:20;;;;;;;5.77;4.40;;;;;;;;;;5115084;27;20197;-74
2022/06/17 00:58:56;;;;;;;6.23;4.73;;;;;;;;;;5102963;27;20191;-74
2022/06/17 01:01:23;;;;;;;4.60;4.20;;;;;;;;;;5117793;27;20782;-74
2022/06/17 01:03:53;;;;;;;5.23;4.40;;;;;;;;;;5133164;27;20275;-74
2022/06/17 01:06:22;;;;;;;6.87;4.50;;;;;;;;;;5129935;27;20293;-74
2022/06/17 01:11:39;;;;;;;6.20;4.93;;;;;;;;;;5098649;28;20221;-74
2022/06/17 01:14:07;;;;;;;5.30;4.80;;;;;;;;;;5112340;28;20285;-74
2022/06/17 01:16:35;;;;;;;6.13;4.90;;;;;;;;;;5112336;28;20293;-74
2022/06/17 01:19:06;;;;;;;5.77;4.50;;;;;;;;;;5111202;28;20233;-74
2022/06/17 01:21:37;;;;;;;5.50;4.60;;;;;;;;;;5124623;27;20249;-74
2022/06/17 01:24:08;;;;;;;7.00;4.67;;;;;;;;;;5124487;27;20229;-74
2022/06/17 01:26:36;;;;;;;6.47;4.90;;;;;;;;;;5113095;28;20734;-74
2022/06/17 01:29:03;;;;;;;10.13;5.33;;;;;;;;;;5104700;28;20253;-74
2022/06/17 01:31:31;;;;;;;7.57;4.97;;;;;;;;;;5105331;28;20613;-74
2022/06/17 01:33:58;;;;;;;7.43;5.03;;;;;;;;;;5111848;28;20193;-74
2022/06/17 01:36:27;;;;;;;8.17;5.40;;;;;;;;;;5122936;28;20238;-74
2022/06/17 01:38:56;;;;;;;5.50;4.97;;;;;;;;;;5111838;28;20540;-74
2022/06/17 01:41:26;;;;;;;5.70;4.70;;;;;;;;;;5108865;28;20248;-74
2022/06/17 01:43:55;;;;;;;6.97;5.03;;;;;;;;;;5091827;28;20365;-74
2022/06/17 01:46:24;;;;;;;8.50;4.97;;;;;;;;;;5111673;28;20285;-74
2022/06/17 01:48:54;;;;;;;5.83;5.23;;;;;;;;;;5114927;28;20255;-75
2022/06/17 01:51:23;;;;;;;8.20;5.23;;;;;;;;;;5116874;28;20281;-74
2022/06/17 01:53:53;;;;;;;7.27;5.70;;;;;;;;;;5100374;28;20230;-74
2022/06/17 01:56:22;;;;;;;7.50;5.33;;;;;;;;;;5110629;28;20273;-74
2022/06/17 01:58:54;;;;;;;7.03;5.17;;;;;;;;;;5091425;28;20687;-74
2022/06/17 02:01:23;;;;;;;8.80;5.40;;;;;;;;;;5091165;28;20659;-74
2022/06/17 02:03:53;;;;;;;8.13;5.20;;;;;;;;;;5091040;28;20658;-74
2022/06/17 02:06:23;;;;;;;7.10;5.20;;;;;;;;;;5090912;28;20194;-74
2022/06/17 02:08:51;;;;;;;7.13;5.50;;;;;;;;;;5091377;28;21050;-74
2022/06/17 02:11:18;;;;;;;11.37;5.50;;;;;;;;;;5091042;28;20202;-74
2022/06/17 02:13:46;;;;;;;7.47;5.03;;;;;;;;;;5095759;28;20236;-74
2022/06/17 02:16:14;;;;;;;5.90;5.20;;;;;;;;;;5099582;28;20289;-74
2022/06/17 02:18:43;;;;;;;7.30;5.30;;;;;;;;;;5091192;28;20200;-74
2022/06/17 02:21:13;;;;;;;6.13;5.20;;;;;;;;;;5090991;28;20245;-74
2022/06/17 02:23:41;;;;;;;7.77;5.23;;;;;;;;;;5090819;28;20198;-74
2022/06/17 02:26:09;;;;;;;7.17;5.30;;;;;;;;;;5094110;28;20289;-74
2022/06/17 02:28:37;;;;;;;7.20;5.37;;;;;;;;;;5106096;28;20305;-74
2022/06/17 02:31:08;;;;;;;7.77;5.10;;;;;;;;;;5108935;28;20297;-74
2022/06/17 02:33:38;;;;;;;7.67;5.00;;;;;;;;;;5113774;28;20205;-74
2022/06/17 02:36:07;;;;;;;6.27;4.97;;;;;;;;;;5115080;28;20534;-74
2022/06/17 02:38:36;;;;;;;8.97;4.97;;;;;;;;;;5131700;27;20599;-74
2022/06/17 02:41:06;;;;;;;5.27;4.77;;;;;;;;;;5101085;27;20210;-74
2022/06/17 02:43:36;;;;;;;5.50;5.00;;;;;;;;;;5094585;28;20247;-74
2022/06/17 02:46:05;;;;;;;7.87;5.40;;;;;;;;;;5094113;28;20259;-74
2022/06/17 02:48:34;;;;;;;5.50;4.77;;;;;;;;;;5093753;28;20313;-74
2022/06/17 02:51:03;;;;;;;6.30;4.87;;;;;;;;;;5114695;27;20751;-74
2022/06/17 02:53:31;;;;;;;6.50;5.13;;;;;;;;;;5135251;27;20674;-74
2022/06/17 02:55:59;;;;;;;7.17;5.13;;;;;;;;;;5105048;27;20295;-74
2022/06/17 02:58:31;;;;;;;7.00;4.80;;;;;;;;;;5094062;28;20190;-74
2022/06/17 03:00:59;;;;;;;6.87;4.77;;;;;;;;;;5111658;27;20320;-74
2022/06/17 03:03:26;;;;;;;5.23;4.73;;;;;;;;;;5123597;27;20437;-74
2022/06/17 03:05:54;;;;;;;6.57;5.00;;;;;;;;;;5118963;27;20578;-74
2022/06/17 03:08:24;;;;;;;7.37;4.70;;;;;;;;;;5114361;28;20218;-74
2022/06/17 03:10:53;;;;;;;5.37;4.87;;;;;;;;;;5114714;28;20233;-74
2022/06/17 03:13:22;;;;;;;6.63;5.20;;;;;;;;;;5114768;28;20302;-74
2022/06/17 03:15:51;;;;;;;6.63;5.27;;;;;;;;;;5114722;28;20305;-73
2022/06/17 03:18:18;;;;;;;6.37;5.30;;;;;;;;;;5114366;28;20619;-74
2022/06/17 03:20:47;;;;;;;6.97;5.17;;;;;;;;;;5127470;27;20237;-74
2022/06/17 03:23:16;;;;;;;7.77;5.10;;;;;;;;;;5097357;27;20206;-74
2022/06/17 03:25:47;;;;;;;7.67;5.07;;;;;;;;;;5107334;28;20280;-74
2022/06/17 03:28:15;;;;;;;8.73;5.00;;;;;;;;;;5113996;28;20312;-73
2022/06/17 03:30:46;;;;;;;5.60;5.00;;;;;;;;;;5114342;28;20251;-74
2022/06/17 03:33:17;;;;;;;6.40;4.67;;;;;;;;;;5113716;27;20289;-74
2022/06/17 03:35:45;;;;;;;6.23;4.67;;;;;;;;;;5113432;28;20688;-73
2022/06/17 03:38:18;;;;;;;6.00;5.00;;;;;;;;;;5113931;28;20270;-73
2022/06/17 03:40:50;;;;;;;6.77;5.00;;;;;;;;;;5113008;28;20285;-74
2022/06/17 03:43:18;;;;;;;6.77;5.07;;;;;;;;;;5113766;28;20237;-74
2022/06/17 03:45:46;;;;;;;12.27;5.53;;;;;;;;;;5103090;28;20297;-73
2022/06/17 03:48:17;;;;;;;7.00;5.57;;;;;;;;;;5099934;27;20275;-74
2022/06/17 03:50:47;;;;;;;9.27;5.70;;;;;;;;;;5113556;28;20285;-73
2022/06/17 03:53:19;;;;;;;8.60;5.37;;;;;;;;;;5113448;28;20202;-74
2022/06/17 03:55:48;;;;;;;8.97;5.30;;;;;;;;;;5114039;28;20311;-73
2022/06/17 03:58:17;;;;;;;8.40;5.83;;;;;;;;;;5113844;28;20632;-73
2022/06/17 04:00:46;;;;;;;6.40;5.73;;;;;;;;;;5113398;28;20321;-74
2022/06/17 04:03:15;;;;;;;8.33;5.97;;;;;;;;;;5115535;27;20284;-73
2022/06/17 04:05:43;;;;;;;9.17;5.83;;;;;;;;;;5112752;27;20281;-74
2022/06/17 04:08:12;;;;;;;6.67;5.97;;;;;;;;;;5106022;28;20662;-73
2022/06/17 04:10:40;;;;;;;7.37;5.90;;;;;;;;;;5103925;27;20208;-73
2022/06/17 04:13:12;;;;;;;6.43;5.57;;;;;;;;;;5113308;28;20384;-74
2022/06/17 04:15:42;;;;;;;7.50;5.87;;;;;;;;;;5096423;28;20773;-73
2022/06/17 04:18:10;;;;;;;6.80;5.90;;;;;;;;;;5092894;28;20240;-73
2022/06/17 04:20:39;;;;;;;6.43;5.80;;;;;;;;;;5098742;28;20201;-73
2022/06/17 04:23:11;;;;;;;7.50;6.53;;;;;;;;;;5093095;28;20285;-73
2022/06/17 04:25:41;;;;;;;7.17;5.80;;;;;;;;;;5103532;27;20287;-74
2022/06/17 04:28:11;;;;;;;6.93;6.27;;;;;;;;;;5113825;27;20304;-75
2022/06/17 04:30:42;;;;;;;8.83;6.27;;;;;;;;;;5113147;28;20284;-75
2022/06/17 04:33:14;;;;;;;9.40;6.93;;;;;;;;;;5107333;27;20714;-75
2022/06/17 04:35:41;;;;;;;12.13;6.70;;;;;;;;;;5115933;27;20282;-75
2022/06/17 04:38:08;;;;;;;8.47;6.70;;;;;;;;;;5092549;28;20281;-75
2022/06/17 04:40:38;;;;;;;8.30;7.50;;;;;;;;;;5125275;27;20234;-74
2022/06/17 04:43:07;;;;;;;9.23;8.33;;;;;;;;;;5108919;27;20301;-75
2022/06/17 04:45:35;;;;;;;13.13;9.13;;;;;;;;;;5121473;27;20650;-74
2022/06/17 04:48:03;;;;;;;8.97;8.17;;;;;;;;;;5112099;28;20748;-74
2022/06/17 04:50:31;;;;;;;10.53;9.50;;;;;;;;;;5096710;28;20671;-75
2022/06/17 04:52:58;;;;;;;15.03;8.80;;;;;;;;;;5103090;27;20195;-75
2022/06/17 04:55:28;;;;;;;11.00;8.60;;;;;;;;;;5092288;28;20289;-75
2022/06/17 04:57:55;;;;;;;10.53;7.27;;;;;;;;;;5091865;28;20738;-75
2022/06/17 05:00:23;;;;;;;8.77;7.43;;;;;;;;;;5091294;28;20262;-74
2022/06/17 05:02:52;;;;;;;11.77;7.10;;;;;;;;;;5098506;28;20585;-75
2022/06/17 05:05:22;;;;;;;14.47;6.20;;;;;;;;;;5112122;28;20288;-72
2022/06/17 05:07:51;;;;;;;9.77;5.53;;;;;;;;;;5112522;28;20229;-74
2022/06/17 05:10:20;;;;;;;6.60;5.43;;;;;;;;;;5111793;28;20308;-75
2022/06/17 05:12:49;;;;;;;11.40;6.20;;;;;;;;;;5112475;28;20289;-74
2022/06/17 05:15:18;;;;;;;10.33;7.03;;;;;;;;;;5112185;28;20284;-74
2022/06/17 05:17:45;;;;;;;8.83;6.67;;;;;;;;;;5126804;27;20225;-74
2022/06/17 05:20:15;;;;;;;11.53;7.03;;;;;;;;;;5120380;27;20289;-74
2022/06/17 05:22:43;;;;;;;8.57;6.83;;;;;;;;;;5111657;28;20281;-74
2022/06/17 05:25:14;;;;;;;12.17;7.13;;;;;;;;;;5112364;28;20198;-74
2022/06/17 05:27:41;;;;;;;14.03;6.93;;;;;;;;;;5111415;28;20240;-74
2022/06/17 05:30:08;;;;;;;7.97;6.73;;;;;;;;;;5111944;28;20309;-74
2022/06/17 05:32:36;;;;;;;7.97;6.63;;;;;;;;;;5104262;28;20280;-74
2022/06/17 05:35:03;;;;;;;8.27;6.57;;;;;;;;;;5107586;28;20587;-74
2022/06/17 05:37:31;;;;;;;8.37;6.30;;;;;;;;;;5093164;28;20261;-75
2022/06/17 05:39:59;;;;;;;9.05;6.18;;;;;;;;;;5076144;27;20308;-74
2022/06/17 05:42:27;;;;;;;14.35;5.70;;;;;;;;;;5092133;28;20221;-74
2022/06/17 05:44:54;;;;;;;7.45;5.60;;;;;;;;;;5099349;28;20296;-75
2022/06/17 05:47:21;;;;;;;10.52;5.68;;;;;;;;;;5094869;28;20297;-75
2022/06/17 05:49:48;;;;;;;9.48;4.72;;;;;;;;;;5095792;28;20301;-75
2022/06/17 05:52:16;;;;;;;9.52;4.78;;;;;;;;;;5091421;28;20208;-75
2022/06/17 05:54:44;;;;;;;8.05;4.72;;;;;;;;;;5128014;27;20193;-75
2022/06/17 05:57:11;;;;;;;6.75;5.00;;;;;;;;;;5131831;27;20197;-75
2022/06/17 05:59:39;;;;;;;8.75;4.57;;;;;;;;;;5112077;28;20221;-75
2022/06/17 06:02:06;;;;;;;8.55;4.50;;;;;;;;;;5123375;28;20775;-75
2022/06/17 06:04:34;;;;;;;6.55;4.47;;;;;;;;;;5116779;28;20224;-75
2022/06/17 06:07:01;;;;;;;5.95;4.30;;;;;;;;;;5102103;28;20205;-75
2022/06/17 06:09:28;;;;;;;7.00;3.88;;;;;;;;;;5105494;27;20325;-76
2022/06/17 06:11:56;;;;;;;6.25;4.10;;;;;;;;;;5110817;27;20240;-75
2022/06/17 06:14:24;;;;;;;5.88;3.97;;;;;;;;;;5108453;28;20202;-75
2022/06/17 06:16:51;;;;;;;5.63;3.90;;;;;;;;;;5110994;28;20360;-75
2022/06/17 06:19:18;;;;;;;6.40;4.10;;;;;;;;;;5114847;28;20281;-76
2022/06/17 06:21:45;;;;;;;5.35;3.85;;;;;;;;;;5121709;27;20197;-76
2022/06/17 06:24:13;;;;;;;7.50;3.65;;;;;;;;;;5113922;27;20230;-75
2022/06/17 06:26:41;;;;;;;4.75;3.72;;;;;;;;;;5102254;28;20240;-75
2022/06/17 06:29:09;;;;;;;5.15;3.50;;;;;;;;;;5094623;28;20584;-75
2022/06/17 06:31:37;;;;;;;11.93;3.53;;;;;;;;;;5103666;27;20292;-76
2022/06/17 06:34:05;;;;;;;4.68;3.50;;;;;;;;;;5111560;27;20285;-76
2022/06/17 06:36:32;;;;;;;5.38;3.60;;;;;;;;;;5104038;28;20383;-76
2022/06/17 06:38:59;;;;;;;6.47;3.88;;;;;;;;;;5114439;27;20628;-76
2022/06/17 06:41:26;;;;;;;6.00;3.78;;;;;;;;;;5107338;28;20617;-76
2022/06/17 06:43:54;;;;;;;4.85;3.47;;;;;;;;;;5110186;28;20217;-76
2022/06/17 06:46:24;;;;;;;4.07;3.65;;;;;;;;;;5107216;28;20229;-76
2022/06/17 06:48:51;;;;;;;4.85;3.75;;;;;;;;;;5101726;28;20204;-76
2022/06/17 06:51:20;;;;;;;5.93;3.53;;;;;;;;;;5102286;27;20281;-75
2022/06/17 06:53:48;;;;;;;5.28;3.80;;;;;;;;;;5093941;28;20209;-75
2022/06/17 06:56:15;;;;;;;7.47;3.40;;;;;;;;;;5096144;28;20230;-75
2022/06/17 06:58:42;;;;;;;5.95;3.72;;;;;;;;;;5108727;27;20283;-75
2022/06/17 07:01:10;;;;;;;5.90;3.58;;;;;;;;;;5097144;27;20306;-75
2022/06/17 07:03:39;;;;;;;5.78;3.60;;;;;;;;;;5115869;27;20911;-76
2022/06/17 07:06:06;;;;;;;6.70;3.38;;;;;;;;;;5110726;28;20285;-75
2022/06/17 07:08:35;;;;;;;4.53;3.30;;;;;;;;;;5112040;28;20700;-76
2022/06/17 07:11:03;;;;;;;4.53;3.33;;;;;;;;;;5100256;28;20221;-75
2022/06/17 07:13:31;;;;;;;5.80;3.10;;;;;;;;;;5113442;28;20217;-75
2022/06/17 07:15:59;;;;;;;4.63;3.53;;;;;;;;;;5100649;28;20589;-76
2022/06/17 07:18:28;;;;;;;3.50;3.20;;;;;;;;;;5110105;28;20282;-75
2022/06/17 07:20:58;;;;;;;4.15;3.00;;;;;;;;;;5115735;27;20201;-75
2022/06/17 07:23:29;;;;;;;5.60;3.50;;;;;;;;;;5113668;27;20205;-76
2022/06/17 07:25:57;;;;;;;3.63;3.00;;;;;;;;;;5113323;27;20269;-75
2022/06/17 07:28:25;;;;;;;4.20;3.10;;;;;;;;;;5116394;27;20280;-75
2022/06/17 07:30:53;;;;;;;5.38;3.30;;;;;;;;;;5111860;27;20218;-76
2022/06/17 07:33:22;;;;;;;3.60;3.30;;;;;;;;;;5108555;27;20276;-75
2022/06/17 07:35:49;;;;;;;6.03;4.05;;;;;;;;;;5108333;27;20281;-76
2022/06/17 07:41:04;;;;;;;3.60;3.30;;;;;;;;;;5114996;27;20205;-75
2022/06/17 07:43:31;;;;;;;6.75;3.30;;;;;;;;;;5114060;27;20284;-76
2022/06/17 07:45:59;;;;;;;3.70;3.40;;;;;;;;;;5119655;27;20225;-76
2022/06/17 07:48:27;;;;;;;4.53;3.25;;;;;;;;;;5107591;27;20301;-76
2022/06/17 07:50:58;;;;;;;3.97;3.13;;;;;;;;;;5111516;27;20213;-76
2022/06/17 07:53:28;;;;;;;4.15;3.20;;;;;;;;;;5113569;27;20669;-76
2022/06/17 07:55:56;;;;;;;5.32;3.40;;;;;;;;;;5113384;27;20297;-76
2022/06/17 07:58:23;;;;;;;7.47;3.30;;;;;;;;;;5113974;27;20288;-76
2022/06/17 08:00:51;;;;;;;5.65;3.20;;;;;;;;;;5114666;27;20256;-76
2022/06/17 08:03:19;;;;;;;6.88;3.50;;;;;;;;;;5125647;27;20296;-76
2022/06/17 08:05:48;;;;;;;4.82;3.30;;;;;;;;;;5115710;27;20250;-76
2022/06/17 08:08:21;;;;;;;4.53;3.50;;;;;;;;;;5104882;27;20290;-76
2022/06/17 08:10:50;;;;;;;3.75;3.08;;;;;;;;;;5113589;27;20209;-76
2022/06/17 08:13:18;;;;;;;5.43;3.20;;;;;;;;;;5106428;27;20221;-76
2022/06/17 08:15:45;;;;;;;3.85;3.10;;;;;;;;;;5099497;27;20226;-76
2022/06/17 08:18:13;;;;;;;4.63;3.33;;;;;;;;;;5109804;28;20280;-76
2022/06/17 08:20:41;;;;;;;3.67;3.03;;;;;;;;;;5096033;28;20186;-76
2022/06/17 08:23:08;;;;;;;6.10;3.33;;;;;;;;;;5104853;27;20198;-76
2022/06/17 08:25:36;;;;;;;3.60;3.30;;;;;;;;;;5098373;28;20193;-76
2022/06/17 08:28:06;;;;;;;7.68;3.25;;;;;;;;;;5094143;27;20320;-76
2022/06/17 08:30:36;;;;;;;5.38;3.22;;;;;;;;;;5115942;27;20278;-76
2022/06/17 08:33:03;;;;;;;6.03;3.40;;;;;;;;;;5124988;27;20265;-76
2022/06/17 08:35:32;;;;;;;4.35;3.35;;;;;;;;;;5114329;27;20292;-74
2022/06/17 08:38:00;;;;;;;5.07;3.10;;;;;;;;;;5112885;27;20276;-74
2022/06/17 08:40:36;;;;;;;4.63;3.50;;;;;;;;;;5122469;27;20646;-75
2022/06/17 08:43:11;;;;;;;5.45;3.22;;;;;;;;;;5100800;28;20230;-75
2022/06/17 08:45:44;;;;;;;5.32;3.53;;;;;;;;;;5101295;28;20225;-76
2022/06/17 08:48:20;;;;;;;6.07;3.55;;;;;;;;;;5104937;28;20288;-75
2022/06/17 08:51:01;;;;;;;5.07;3.08;;;;;;;;;;5115081;27;20308;-75
2022/06/17 08:53:39;;;;;;;5.05;3.20;;;;;;;;;;5092472;28;20285;-76
2022/06/17 08:56:09;;;;;;;4.53;3.08;;;;;;;;;;5097229;28;20237;-75
2022/06/17 08:58:44;;;;;;;3.40;2.80;;;;;;;;;;5095711;28;20722;-75
2022/06/17 09:01:15;;;;;;;3.70;2.88;;;;;;;;;;5098887;27;20732;-75
2022/06/17 09:03:49;;;;;;;5.78;3.00;;;;;;;;;;5112237;28;20233;-75
2022/06/17 09:06:21;;;;;;;5.32;2.92;;;;;;;;;;5110495;27;20197;-74
2022/06/17 09:09:00;;;;;;;5.70;2.97;;;;;;;;;;5102311;28;20592;-74
2022/06/17 09:11:31;;;;;;;7.03;3.03;;;;;;;;;;5097485;28;20308;-73
2022/06/17 09:14:10;;;;;;;5.25;3.05;;;;;;;;;;5111836;28;20240;-74
2022/06/17 09:16:43;;;;;;;4.55;3.13;;;;;;;;;;5124324;27;20617;-74
2022/06/17 09:19:12;;;;;;;3.65;2.80;;;;;;;;;;5112119;27;20574;-74
2022/06/17 09:21:45;;;;;;;4.95;3.42;;;;;;;;;;5106653;27;20277;-74
2022/06/17 09:24:18;;;;;;;3.17;2.90;;;;;;;;;;5100022;28;20230;-74
2022/06/17 09:26:47;;;;;;;3.75;3.00;;;;;;;;;;5094465;28;20207;-74
2022/06/17 09:29:18;;;;;;;6.53;3.67;;;;;;;;;;5114858;27;20189;-74
2022/06/17 09:31:48;;;;;;;4.55;3.38;;;;;;;;;;5097475;28;20314;-74
2022/06/17 09:34:18;;;;;;;3.58;3.20;;;;;;;;;;5107438;27;20232;-74
2022/06/17 09:36:49;;;;;;;4.55;3.30;;;;;;;;;;5104333;28;20289;-73
2022/06/17 09:39:19;;;;;;;4.50;3.30;;;;;;;;;;5100814;27;20195;-73
2022/06/17 09:41:48;;;;;;;3.50;3.20;;;;;;;;;;5116089;27;20676;-73
2022/06/17 09:44:19;;;;;;;4.03;3.63;;;;;;;;;;5108066;27;20225;-73
2022/06/17 09:46:49;;;;;;;7.35;3.58;;;;;;;;;;5091466;28;20670;-73
2022/06/17 09:49:23;;;;;;;5.57;3.20;;;;;;;;;;5090910;28;20713;-73
2022/06/17 09:51:53;;;;;;;4.30;3.58;;;;;;;;;;5102505;28;20224;-73
2022/06/17 09:54:25;;;;;;;5.20;3.53;;;;;;;;;;5110302;28;20231;-74
2022/06/17 09:56:57;;;;;;;3.78;3.35;;;;;;;;;;5106527;28;20293;-74
2022/06/17 09:59:28;;;;;;;6.25;3.38;;;;;;;;;;5099741;28;20284;-75
2022/06/17 10:01:56;;;;;;;5.90;3.63;;;;;;;;;;5102595;28;20214;-74
2022/06/17 10:04:25;;;;;;;4.07;3.67;;;;;;;;;;5107788;28;20292;-74
2022/06/17 10:06:59;;;;;;;6.80;3.80;;;;;;;;;;5099854;28;20284;-74
2022/06/17 10:09:38;;;;;;;5.00;4.00;;;;;;;;;;5100574;28;20285;-73
2022/06/17 10:12:10;;;;;;;5.65;3.53;;;;;;;;;;5111608;28;20247;-74
2022/06/17 10:14:53;;;;;;;4.50;3.58;;;;;;;;;;5111015;28;20204;-74
2022/06/17 10:20:16;;;;;;;7.97;5.82;;;;;;;;;;5092699;28;20664;-74
2022/06/17 10:22:46;;;;;;;7.25;4.90;;;;;;;;;;5101076;28;20689;-74
2022/06/17 10:25:21;;;;;;;4.72;4.20;;;;;;;;;;5099423;28;20225;-74
2022/06/17 10:27:55;;;;;;;8.25;3.50;;;;;;;;;;5104165;28;20236;-74
2022/06/17 10:30:27;;;;;;;6.47;3.60;;;;;;;;;;5102697;28;20248;-74
2022/06/17 10:32:54;;;;;;;4.68;3.30;;;;;;;;;;5108418;28;20288;-74
2022/06/17 10:35:26;;;;;;;6.18;3.92;;;;;;;;;;5108492;28;20276;-74
2022/06/17 10:37:54;;;;;;;5.60;3.50;;;;;;;;;;5092191;28;20637;-74
2022/06/17 10:40:22;;;;;;;7.15;3.63;;;;;;;;;;5109934;28;20677;-74
2022/06/17 10:42:57;;;;;;;5.80;3.50;;;;;;;;;;5100362;28;20230;-74
2022/06/17 10:45:26;;;;;;;6.10;3.30;;;;;;;;;;5098876;28;20217;-74
2022/06/17 10:47:57;;;;;;;7.25;3.33;;;;;;;;;;5107053;28;20197;-74
2022/06/17 10:50:26;;;;;;;4.85;3.50;;;;;;;;;;5136121;27;20215;-74
2022/06/17 10:52:55;;;;;;;5.00;3.63;;;;;;;;;;5111886;28;20254;-74
2022/06/17 10:55:27;;;;;;;4.30;3.35;;;;;;;;;;5113810;28;20202;-74
2022/06/17 10:58:08;;;;;;;7.47;3.60;;;;;;;;;;5112024;27;20295;-74
2022/06/17 11:00:42;;;;;;;5.13;3.55;;;;;;;;;;5109675;27;20318;-74
2022/06/17 11:03:22;;;;;;;6.15;3.50;;;;;;;;;;5113738;27;20283;-73
2022/06/17 11:05:54;;;;;;;7.45;3.70;;;;;;;;;;5094388;28;20202;-74
2022/06/17 11:08:21;;;;;;;3.50;3.10;;;;;;;;;;5107629;27;20286;-74
2022/06/17 11:10:52;;;;;;;5.18;3.40;;;;;;;;;;5109005;27;20213;-74
2022/06/17 11:13:20;;;;;;;3.85;3.13;;;;;;;;;;5094877;28;20292;-75
2022/06/17 11:15:51;;;;;;;8.32;3.72;;;;;;;;;;5109064;27;20197;-74
2022/06/17 11:18:21;;;;;;;7.43;3.47;;;;;;;;;;5111527;27;20252;-75
2022/06/17 11:20:55;;;;;;;6.15;3.70;;;;;;;;;;5108732;28;20271;-74
2022/06/17 11:23:23;;;;;;;8.45;3.80;;;;;;;;;;5118073;27;20292;-74
2022/06/17 11:25:52;;;;;;;3.85;3.47;;;;;;;;;;5106701;27;20300;-74
2022/06/17 11:28:24;;;;;;;4.15;3.03;;;;;;;;;;5115537;27;20297;-74
2022/06/17 11:30:54;;;;;;;4.95;3.40;;;;;;;;;;5107240;28;20213;-74
2022/06/17 11:33:23;;;;;;;4.00;3.00;;;;;;;;;;5105261;28;20660;-75
2022/06/17 11:35:58;;;;;;;5.40;3.40;;;;;;;;;;5105029;28;20227;-75
2022/06/17 11:38:26;;;;;;;5.22;3.03;;;;;;;;;;5105140;28;20752;-74
2022/06/17 11:40:55;;;;;;;4.70;3.15;;;;;;;;;;5103711;28;20280;-74
2022/06/17 11:43:28;;;;;;;5.93;3.05;;;;;;;;;;5102164;28;20288;-75
2022/06/17 11:45:56;;;;;;;5.15;2.97;;;;;;;;;;5103454;27;20213;-74
2022/06/17 11:48:24;;;;;;;10.38;3.30;;;;;;;;;;5102294;28;20280;-75
2022/06/17 11:51:03;;;;;;;4.38;3.05;;;;;;;;;;5108332;28;20296;-75
2022/06/17 11:53:31;;;;;;;6.18;3.78;;;;;;;;;;4757268;27;10000226;-74
2022/06/17 11:55:58;;;;;;;5.15;3.45;;;;;;;;;;5100613;28;20729;-74
2022/06/17 11:58:25;;;;;;;5.90;2.90;;;;;;;;;;5102563;28;20594;-74
2022/06/17 12:04:41;;;;;;;5.15;3.30;;;;;;;;;;5111797;28;20294;-74
2022/06/17 12:16:35;;;;;;;3.92;3.22;;;;;;;;;;5092612;28;20256;-74
2022/06/17 12:19:02;;;;;;;5.97;3.55;;;;;;;;;;5073142;28;20410;-74
2022/06/17 12:21:34;;;;;;;10.13;2.88;;;;;;;;;;5082426;28;20263;-74
2022/06/17 12:24:06;;;;;;;4.53;2.95;;;;;;;;;;5091041;28;20236;-74
2022/06/17 12:26:37;;;;;;;6.15;3.30;;;;;;;;;;5090162;28;20631;-74
2022/06/17 12:29:06;;;;;;;6.35;3.53;;;;;;;;;;5090074;28;20194;-74
2022/06/17 12:31:41;;;;;;;4.32;3.42;;;;;;;;;;5090164;28;20346;-74
2022/06/17 12:34:15;;;;;;;6.68;3.30;;;;;;;;;;5092655;28;20285;-74
2022/06/17 12:36:47;;;;;;;4.95;3.42;;;;;;;;;;5090362;28;20232;-74
2022/06/17 12:39:18;;;;;;;4.13;3.15;;;;;;;;;;5087837;28;20207;-74
2022/06/17 12:41:50;;;;;;;4.90;3.55;;;;;;;;;;5090226;28;20404;-74
2022/06/17 12:44:22;;;;;;;7.15;3.58;;;;;;;;;;5092417;28;20249;-73
2022/06/17 12:46:58;;;;;;;4.55;3.28;;;;;;;;;;5088122;28;20288;-74
2022/06/17 12:55:07;;;;;;;5.18;3.53;;;;;;;;;;5088942;28;20236;-74
2022/06/17 12:57:38;;;;;;;3.85;2.97;;;;;;;;;;5090784;28;20630;-74
2022/06/17 13:00:09;;;;;;;5.80;3.20;;;;;;;;;;5108843;28;20247;-74
2022/06/17 13:02:45;;;;;;;5.68;3.30;;;;;;;;;;5094395;28;20198;-74
2022/06/17 13:05:17;;;;;;;7.28;3.67;;;;;;;;;;5108708;27;20319;-74
2022/06/17 13:08:06;;;;;;;5.07;3.40;;;;;;;;;;5131640;27;20239;-75
2022/06/17 13:10:42;;;;;;;6.80;3.42;;;;;;;;;;5130690;27;20192;-76
2022/06/17 13:13:15;;;;;;;6.65;3.17;;;;;;;;;;5127969;27;20928;-75
2022/06/17 13:15:46;;;;;;;6.03;3.42;;;;;;;;;;5129029;27;20197;-74
2022/06/17 13:18:19;;;;;;;4.15;3.17;;;;;;;;;;5130689;27;20295;-74
2022/06/17 13:20:51;;;;;;;6.70;3.55;;;;;;;;;;5130510;27;20321;-74
2022/06/17 13:23:23;;;;;;;5.25;3.25;;;;;;;;;;5131170;27;20291;-74
2022/06/17 13:25:53;;;;;;;6.65;3.28;;;;;;;;;;5132801;27;20225;-74
2022/06/17 13:28:23;;;;;;;5.82;3.38;;;;;;;;;;5130772;27;20275;-74
2022/06/17 13:30:54;;;;;;;6.32;3.47;;;;;;;;;;5122809;27;20279;-74
2022/06/17 13:33:26;;;;;;;4.60;3.28;;;;;;;;;;5131338;27;20200;-74
2022/06/17 13:35:55;;;;;;;5.63;3.42;;;;;;;;;;5129951;27;20288;-74
2022/06/17 13:38:26;;;;;;;5.97;3.80;;;;;;;;;;5132222;27;20192;-75
2022/06/17 13:40:58;;;;;;;6.70;3.50;;;;;;;;;;5131741;27;20193;-75
2022/06/17 13:43:27;;;;;;;8.88;3.53;;;;;;;;;;5145570;27;20593;-75
2022/06/17 13:45:58;;;;;;;5.35;3.50;;;;;;;;;;5131394;27;20220;-75
2022/06/17 13:48:30;;;;;;;7.60;3.20;;;;;;;;;;5134740;27;20224;-75
2022/06/17 13:51:01;;;;;;;6.35;3.30;;;;;;;;;;5134335;27;20291;-75
2022/06/17 13:53:42;;;;;;;5.15;3.05;;;;;;;;;;5133690;27;20279;-75
2022/06/17 13:56:12;;;;;;;6.03;3.17;;;;;;;;;;5130501;28;20295;-74
2022/06/17 13:58:43;;;;;;;9.15;3.30;;;;;;;;;;5134029;27;20287;-74
2022/06/17 14:01:30;;;;;;;5.65;3.50;;;;;;;;;;5131020;27;20944;-74
2022/06/17 14:04:24;;;;;;;7.03;3.40;;;;;;;;;;5128353;27;20636;-74
2022/06/17 14:06:57;;;;;;;5.25;3.20;;;;;;;;;;5131119;27;20227;-74
2022/06/17 14:09:26;;;;;;;8.77;3.50;;;;;;;;;;5139988;27;20280;-74
2022/06/17 14:11:53;;;;;;;6.90;3.60;;;;;;;;;;5130524;27;20548;-74
2022/06/17 14:14:42;;;;;;;10.27;3.10;;;;;;;;;;5129880;27;20199;-74
2022/06/17 14:17:12;;;;;;;6.00;3.50;;;;;;;;;;5142065;27;20195;-74
2022/06/17 14:19:44;;;;;;;5.13;3.65;;;;;;;;;;5122416;27;20292;-74
2022/06/17 14:22:18;;;;;;;9.80;3.90;;;;;;;;;;5131098;27;20188;-75
2022/06/17 14:25:00;;;;;;;12.43;3.40;;;;;;;;;;5132103;27;20231;-74
2022/06/17 14:27:49;;;;;;;7.85;3.55;;;;;;;;;;5135544;27;20601;-74
2022/06/17 14:30:41;;;;;;;8.18;3.58;;;;;;;;;;5134658;27;20231;-75
2022/06/17 14:33:17;;;;;;;6.10;3.33;;;;;;;;;;5115595;27;20235;-74
2022/06/17 14:35:49;;;;;;;6.97;3.80;;;;;;;;;;5135233;27;20690;-75
2022/06/17 14:38:20;;;;;;;7.30;3.05;;;;;;;;;;5135559;27;20249;-74
2022/06/17 14:43:34;;;;;;;7.38;3.30;;;;;;;;;;5135343;27;20310;-75
2022/06/17 14:46:02;;;;;;;8.43;3.90;;;;;;;;;;5135665;27;20252;-75
2022/06/17 14:48:31;;;;;;;4.68;3.22;;;;;;;;;;5135799;27;20210;-74
2022/06/17 14:51:01;;;;;;;6.65;3.30;;;;;;;;;;5135326;27;20231;-74
2022/06/17 14:53:36;;;;;;;6.20;3.17;;;;;;;;;;5135300;27;20222;-74
2022/06/17 14:56:08;;;;;;;5.85;3.47;;;;;;;;;;5137333;27;20279;-74
2022/06/17 14:58:44;;;;;;;6.97;3.85;;;;;;;;;;5135035;27;20292;-74
2022/06/17 15:01:20;;;;;;;4.80;3.40;;;;;;;;;;5138462;27;20232;-74
2022/06/17 15:03:53;;;;;;;8.63;3.92;;;;;;;;;;5143028;27;20623;-74
2022/06/17 15:06:20;;;;;;;4.22;3.33;;;;;;;;;;5142353;27;20254;-74
2022/06/17 15:08:50;;;;;;;8.77;3.50;;;;;;;;;;5134537;27;20742;-74
2022/06/17 15:11:21;;;;;;;5.75;3.60;;;;;;;;;;5134879;27;20197;-74
2022/06/17 15:14:09;;;;;;;5.30;3.35;;;;;;;;;;5133860;27;20231;-74
2022/06/17 15:16:38;;;;;;;3.92;3.33;;;;;;;;;;5134946;27;20209;-74
2022/06/17 15:19:07;;;;;;;6.20;3.45;;;;;;;;;;5134117;27;20200;-74
2022/06/17 15:21:48;;;;;;;8.50;3.70;;;;;;;;;;5134126;27;20291;-74
2022/06/17 15:24:25;;;;;;;8.27;3.78;;;;;;;;;;5134227;27;20205;-74
2022/06/17 15:26:54;;;;;;;5.63;3.45;;;;;;;;;;5133939;27;20656;-74
2022/06/17 15:29:23;;;;;;;8.27;3.45;;;;;;;;;;5135253;27;20228;-75
2022/06/17 15:31:52;;;;;;;8.57;3.63;;;;;;;;;;5133936;27;20299;-74